F/V Mare Liberum — FVHW — position and weather

sailwx.info

Track history (hours):
 
Tides and Currents Weather Stations Pressure Air Temp Water Temp Dewpoint Dewpoint Depression Visibility Wind Speed Wind Dir Waves Ship Positions

F/V Mare Liberum

Last reported at 2015-Apr-21 00:33 UTC. Time now 2015-Apr-21 01:25 UTC.
Position N 47°01' W 002°18'.

Length 21 m.

Type: Fishing. MMSI: 227426000.

Date/timePositionNaut miles runAvg speedWind from/ knotsBaromVisibWave heightAir tempDewpointWater temp
2015-Apr-21 00:33N 47°01' W 002°18'0 0.0
2015-Apr-20 23:29N 47°01' W 002°18'  
2015-Apr-16 11:33N 46°52' W 002°24'45 5.4
2015-Apr-16 03:16N 46°07' W 002°23'1 2.0
2015-Apr-16 02:32N 46°07' W 002°21'2 1.4
2015-Apr-16 01:25N 46°07' W 002°19'2 1.8
2015-Apr-16 00:32N 46°08' W 002°21'5 0.5
2015-Apr-15 14:27N 46°10' W 002°27'2 1.2
2015-Apr-15 12:32N 46°12' W 002°26'2 0.4
2015-Apr-15 08:14N 46°12' W 002°23'3 5.0
2015-Apr-15 07:33N 46°16' W 002°24'6 5.7
2015-Apr-15 06:32N 46°21' W 002°24'6 5.7
2015-Apr-15 05:33N 46°27' W 002°25'6 6.3
2015-Apr-15 04:32N 46°33' W 002°25'8 8.1
2015-Apr-15 03:33N 46°41' W 002°26'9 8.6
2015-Apr-15 02:32N 46°50' W 002°25'8 8.7
2015-Apr-15 01:33N 46°59' W 002°24'5 5.1
2015-Apr-15 00:33N 47°02' W 002°18'51 6.3
2015-Apr-14 16:26N 46°11' W 002°27'0 0.0
2015-Apr-14 15:33N 46°11' W 002°27'0 0.3
2015-Apr-14 14:15N 46°12' W 002°27'1 0.0
2015-Apr-13 05:33N 46°13' W 002°26'0 0.1
2015-Apr-12 23:15N 46°12' W 002°27'0 0.0
2015-Apr-12 22:28N 46°12' W 002°27'  
Track history (hours):
 
Tides and Currents Weather Stations Pressure Air Temp Water Temp Dewpoint Dewpoint Depression Visibility Wind Speed Wind Dir Waves Ship Positions

F/V Mare Liberum

Last reported at 2015-Apr-21 00:33 UTC. Time now 2015-Apr-21 01:25 UTC.
Position N 47°01' W 002°18'.

Length 21 m.

Type: Fishing. MMSI: 227426000.

Date/timePositionNaut miles runAvg speedWind from/ knotsBaromVisibWave heightAir tempDewpointWater temp
2015-Apr-21 00:33N 47°01' W 002°18'0 0.0
2015-Apr-20 23:29N 47°01' W 002°18'  
2015-Apr-16 11:33N 46°52' W 002°24'45 5.4
2015-Apr-16 03:16N 46°07' W 002°23'1 2.0
2015-Apr-16 02:32N 46°07' W 002°21'2 1.4
2015-Apr-16 01:25N 46°07' W 002°19'2 1.8
2015-Apr-16 00:32N 46°08' W 002°21'5 0.5
2015-Apr-15 14:27N 46°10' W 002°27'2 1.2
2015-Apr-15 12:32N 46°12' W 002°26'2 0.4
2015-Apr-15 08:14N 46°12' W 002°23'3 5.0
2015-Apr-15 07:33N 46°16' W 002°24'6 5.7
2015-Apr-15 06:32N 46°21' W 002°24'6 5.7
2015-Apr-15 05:33N 46°27' W 002°25'6 6.3
2015-Apr-15 04:32N 46°33' W 002°25'8 8.1
2015-Apr-15 03:33N 46°41' W 002°26'9 8.6
2015-Apr-15 02:32N 46°50' W 002°25'8 8.7
2015-Apr-15 01:33N 46°59' W 002°24'5 5.1
2015-Apr-15 00:33N 47°02' W 002°18'51 6.3
2015-Apr-14 16:26N 46°11' W 002°27'0 0.0
2015-Apr-14 15:33N 46°11' W 002°27'0 0.3
2015-Apr-14 14:15N 46°12' W 002°27'1 0.0
2015-Apr-13 05:33N 46°13' W 002°26'0 0.1
2015-Apr-12 23:15N 46°12' W 002°27'0 0.0
2015-Apr-12 22:28N 46°12' W 002°27'  

Dump ship's entire track history